メインページ
METAR-TAF:

METAR-TAF

空港 :

ポートエンジェルス, ワシントン, アメリカ合衆国

緯度: 48-07-20N, 経度: 123-30-19W, 海抜: 87m

現時点の気象観測

当レポートは17分前の18:05(UTC)に作成
無風
気温 9°C
湿度 100%
気圧 1017 hPa
視程: 4.8km
高度100ftの千切れ雲あり
高度900ftの曇り

METAR: KCLM 171805Z AUTO 00000KT 3SM BR BKN001 OVC009 09/09 A3004 RMK AO2 RAE00 P0000 T00940094

時間: 10:22 (18:22 UTC)

予報

当レポートは22分前の18:00(UTC)に作成
予報は17日の 18時(UTC)から 18日の 18時(UTC)まで有効
変向風 5kt
視程: 9.7km
高度1200ftの千切れ雲あり
高度5000ftの曇り
小雨, 靄
17日の 18時(UTC)から 17日の 20時(UTC)まで一時的に
視程: 1.6km
高度100ftの千切れ雲あり
17日の 2000時(UTC)から
西の風 7kt
視程: 10km
高度500ftの雲は散在している
高度1800ftの千切れ雲あり
高度4000ftの曇り
17日の 2200時(UTC)から
西/北西の風 8kt
視程: 10km
高度2000ftの曇り
18日の 0200時(UTC)から
西/南西の風 3kt
視程: 10km
高度2000ftの千切れ雲あり

TAF: KCLM 171800Z 1718/1818 VRB05KT 6SM -RA BR BKN012 OVC050 TEMPO 1718/1720 1SM BR BKN001 FM172000 27007KT P6SM SCT005 BKN018 OVC040 FM172200 29008KT P6SM OVC020 FM180200 24003KT P6SM BKN020

4,000以上の空港の気象観測と天気予報(METAR報とTAF報)

利用可能な観測所は地図上に黄色い丸と赤い丸で示す。

丸の上にカーソルを重ねると観測所名を参照できる。

次にクリックすると気象観測と天気予報を参照できる。

マップの切り替え:黒色「×」印の緑ボタンをクリックして拡大、「-」印の緑ボタンをクリックして縮小、緑色の三角印をクリックして隣りの地図に切り替え


METAR-TAF: